Kaolack, Senegal
Current Conditions -  °F | °C
As of 10:00 PM on Friday 19 Dec 2014 (Local Time) from GBYD Reporting Station
Clear Clear  
Wind Chill: 72°   Ceiling: Unl
Heat Index: 72°   Visibility: 6mi
Dew Point: 57°   Wind: 9mph
Humidity: 60%   Direction: 90°E
Pressure: 29.94"   Gusts: NA
Location:  14.15°N, 16.1°W
Report Text: GBYD 192200Z 09008KT CAVOK 22/14 Q1014
Loading
Personal Weather Stations






























Interactive Weather Map New forecast layout! Learn more

10-Day Weather Forecast

Advertisements
Track Severe Weather on mobile